Time;durP1;ratioP1;P1;durP2;ratioP2;P2;SDS_P1;SDS_P2;PMS_P1;PMS_P2;Temp;Humidity;BMP_temperature;BMP_pressure;BME280_temperature;BME280_humidity;BME280_pressure;Samples;Min_cycle;Max_cycle;Signal;HPM_P1;HPM_P2
2023/07/31 00:02:23;;;;;;;2.33;2.10;;;16.80;99.90;;;;;;5098024;28;20172;-68
2023/07/31 00:04:49;;;;;;;4.13;2.00;;;16.90;99.90;;;;;;5107791;27;20222;-68
2023/07/31 00:07:15;;;;;;;3.90;1.80;;;16.90;99.90;;;;;;5117304;27;20294;-67
2023/07/31 00:09:40;;;;;;;4.33;2.30;;;16.50;99.90;;;;;;5091769;28;20549;-67
2023/07/31 00:12:06;;;;;;;1.97;1.73;;;16.70;99.90;;;;;;5114309;27;20302;-67
2023/07/31 00:14:32;;;;;;;3.30;2.40;;;16.50;99.90;;;;;;5113381;27;20195;-67
2023/07/31 00:16:57;;;;;;;4.77;2.60;;;16.30;99.90;;;;;;5097828;27;20468;-67
2023/07/31 00:19:23;;;;;;;2.57;2.10;;;16.70;99.90;;;;;;5114568;27;20193;-67
2023/07/31 00:21:48;;;;;;;2.50;1.90;;;16.50;99.90;;;;;;5108467;27;20187;-67
2023/07/31 00:24:14;;;;;;;2.63;2.13;;;16.50;99.90;;;;;;5111428;27;20218;-67
2023/07/31 00:26:39;;;;;;;3.97;2.33;;;16.80;99.90;;;;;;5114485;27;20529;-67
2023/07/31 00:29:05;;;;;;;2.87;2.13;;;16.40;99.90;;;;;;5110614;27;20200;-67
2023/07/31 00:31:31;;;;;;;2.80;2.30;;;16.30;99.90;;;;;;5112380;27;20210;-67
2023/07/31 00:33:56;;;;;;;2.83;2.07;;;16.30;99.90;;;;;;5116090;27;20221;-67
2023/07/31 00:36:22;;;;;;;5.77;2.60;;;16.50;99.90;;;;;;5108924;27;20178;-67
2023/07/31 00:38:47;;;;;;;3.53;2.17;;;16.20;99.90;;;;;;5108140;27;20185;-67
2023/07/31 00:41:13;;;;;;;2.90;2.03;;;16.60;99.90;;;;;;5092038;27;20179;-66
2023/07/31 00:43:38;;;;;;;4.40;2.27;;;16.50;99.90;;;;;;5104020;28;20551;-67
2023/07/31 00:46:04;;;;;;;2.40;2.20;;;16.40;99.90;;;;;;5109321;27;20203;-67
2023/07/31 00:48:30;;;;;;;3.53;2.17;;;16.40;99.90;;;;;;5110743;27;20192;-67
2023/07/31 00:50:57;;;;;;;3.35;2.13;;;16.10;99.90;;;;;;5110417;28;20216;-67
2023/07/31 00:53:24;;;;;;;2.60;1.87;;;16.10;99.90;;;;;;5108001;28;20175;-66
2023/07/31 00:55:50;;;;;;;2.40;2.20;;;16.50;99.90;;;;;;5113403;28;20226;-67
2023/07/31 00:58:16;;;;;;;2.70;1.90;;;16.10;99.90;;;;;;5106870;28;20217;-66
2023/07/31 01:00:41;;;;;;;3.73;2.47;;;16.30;99.90;;;;;;5108734;28;20546;-67
2023/07/31 01:03:07;;;;;;;6.47;2.30;;;16.50;99.90;;;;;;5113349;28;20280;-67
2023/07/31 01:05:45;;;;;;;3.60;2.23;;;16.40;99.90;;;;;;5111747;28;20208;-66
2023/07/31 01:08:33;;;;;;;2.80;2.55;;;16.40;99.90;;;;;;5093569;28;20205;-67
2023/07/31 01:11:07;;;;;;;3.28;2.63;;;16.40;99.90;;;;;;5105744;28;20215;-67
2023/07/31 01:13:33;;;;;;;2.78;2.30;;;16.50;99.90;;;;;;5109189;28;20179;-66
2023/07/31 01:15:58;;;;;;;3.83;2.67;;;16.20;99.90;;;;;;5091146;28;20251;-67
2023/07/31 01:18:24;;;;;;;2.17;2.03;;;16.20;99.90;;;;;;5107626;28;20451;-67
2023/07/31 01:20:56;;;;;;;2.00;1.90;;;16.30;99.90;;;;;;5109662;28;20281;-66
2023/07/31 01:23:34;;;;;;;2.80;2.30;;;16.40;99.90;;;;;;5110545;28;20322;-67
2023/07/31 01:26:16;;;;;;;3.83;1.90;;;16.20;99.90;;;;;;5092305;28;20560;-66
2023/07/31 01:29:01;;;;;;;2.42;2.22;;;16.30;99.90;;;;;;5105156;28;20186;-67
2023/07/31 01:31:29;;;;;;;2.65;2.45;;;16.10;99.90;;;;;;5108477;28;20206;-67
2023/07/31 01:33:59;;;;;;;2.63;2.40;;;16.10;99.90;;;;;;5110280;28;20215;-67
2023/07/31 01:36:25;;;;;;;2.85;2.55;;;15.90;99.90;;;;;;5109834;27;20175;-67
2023/07/31 01:38:51;;;;;;;3.70;2.67;;;15.80;99.90;;;;;;5094953;27;20179;-66
2023/07/31 01:41:18;;;;;;;3.87;2.67;;;16.10;99.90;;;;;;5115970;27;20539;-66
2023/07/31 01:43:44;;;;;;;7.10;2.72;;;15.90;99.90;;;;;;5111789;27;20178;-67
2023/07/31 01:46:09;;;;;;;5.05;2.72;;;15.90;99.90;;;;;;5118642;27;21248;-67
2023/07/31 01:48:36;;;;;;;2.50;2.10;;;15.80;99.90;;;;;;5112509;27;20712;-67
2023/07/31 01:51:02;;;;;;;2.13;1.90;;;15.80;99.90;;;;;;5113944;27;20203;-67
2023/07/31 01:53:29;;;;;;;2.83;2.30;;;15.90;99.90;;;;;;5099124;27;20264;-66
2023/07/31 01:55:55;;;;;;;2.70;1.90;;;15.60;99.90;;;;;;5115133;27;20617;-66
2023/07/31 01:58:20;;;;;;;2.07;1.93;;;15.70;99.90;;;;;;5110830;27;20179;-66
2023/07/31 02:00:46;;;;;;;4.70;2.33;;;15.60;99.90;;;;;;5095450;27;20189;-66
2023/07/31 02:03:11;;;;;;;3.47;2.10;;;15.90;99.90;;;;;;5118746;27;20191;-66
2023/07/31 02:05:44;;;;;;;3.53;2.40;;;15.50;99.90;;;;;;5115842;27;20209;-66
2023/07/31 02:08:10;;;;;;;2.95;2.45;;;15.70;99.90;;;;;;5115666;27;20700;-66
2023/07/31 02:10:35;;;;;;;2.90;2.60;;;15.80;99.90;;;;;;5119566;27;20214;-66
2023/07/31 02:13:03;;;;;;;3.10;2.20;;;15.70;99.90;;;;;;5094036;27;20184;-66
2023/07/31 02:15:30;;;;;;;2.08;1.80;;;15.50;99.90;;;;;;5116404;27;20203;-66
2023/07/31 02:17:55;;;;;;;2.33;2.05;;;15.80;99.90;;;;;;5116860;27;20215;-66
2023/07/31 02:20:21;;;;;;;2.90;2.23;;;15.80;99.90;;;;;;5093067;28;20291;-66
2023/07/31 02:22:46;;;;;;;6.70;2.20;;;15.50;99.90;;;;;;5109421;27;20295;-66
2023/07/31 02:25:12;;;;;;;3.80;2.37;;;15.90;99.90;;;;;;5093638;27;20206;-67
2023/07/31 02:27:37;;;;;;;2.30;2.20;;;15.70;99.90;;;;;;5112578;27;20679;-66
2023/07/31 02:30:03;;;;;;;2.33;2.13;;;15.80;99.90;;;;;;5113517;27;20224;-66
2023/07/31 02:32:28;;;;;;;2.60;2.40;;;15.90;99.90;;;;;;5087473;27;20198;-66
2023/07/31 02:34:54;;;;;;;2.40;2.20;;;15.70;99.90;;;;;;5121115;27;20199;-67
2023/07/31 02:37:20;;;;;;;3.90;2.90;;;15.60;99.90;;;;;;5111026;27;20288;-66
2023/07/31 02:39:45;;;;;;;3.10;2.80;;;15.70;99.90;;;;;;5117307;27;20645;-66
2023/07/31 02:42:11;;;;;;;3.67;2.53;;;15.90;99.90;;;;;;5094002;27;20600;-66
2023/07/31 02:44:36;;;;;;;5.53;2.97;;;15.80;99.90;;;;;;5097405;27;20301;-66
2023/07/31 02:47:03;;;;;;;2.70;2.50;;;15.70;99.90;;;;;;5117381;27;20278;-66
2023/07/31 02:49:28;;;;;;;3.05;2.85;;;16.00;99.90;;;;;;5095297;27;20244;-66
2023/07/31 02:51:54;;;;;;;6.37;3.27;;;15.80;99.90;;;;;;5094664;27;20219;-66
2023/07/31 02:54:21;;;;;;;3.50;2.47;;;15.60;99.90;;;;;;5114899;27;20191;-66
2023/07/31 02:56:47;;;;;;;3.08;2.65;;;15.60;99.90;;;;;;5114133;27;20196;-66
2023/07/31 02:59:13;;;;;;;2.53;2.33;;;15.90;99.90;;;;;;5114121;27;20180;-66
2023/07/31 03:01:38;;;;;;;2.70;2.50;;;15.70;99.90;;;;;;5109701;27;20625;-67
2023/07/31 03:04:04;;;;;;;2.67;2.30;;;15.80;99.90;;;;;;5111682;27;20183;-66
2023/07/31 03:06:30;;;;;;;4.10;2.00;;;15.90;99.90;;;;;;5115080;27;20652;-67
2023/07/31 03:08:55;;;;;;;2.67;1.80;;;16.00;99.90;;;;;;5111926;27;20524;-66
2023/07/31 03:11:21;;;;;;;2.83;2.50;;;16.00;99.90;;;;;;5108119;27;20207;-67
2023/07/31 03:13:47;;;;;;;2.40;2.00;;;16.10;99.90;;;;;;5095214;27;20176;-66
2023/07/31 03:16:12;;;;;;;2.20;1.73;;;16.20;99.90;;;;;;5114089;27;20194;-68
2023/07/31 03:18:38;;;;;;;2.90;1.90;;;16.10;99.90;;;;;;5109724;27;20176;-67
2023/07/31 03:21:04;;;;;;;2.93;2.27;;;16.00;99.90;;;;;;5113342;27;20206;-67
2023/07/31 03:23:30;;;;;;;3.50;1.90;;;16.10;99.90;;;;;;5110441;27;20179;-67
2023/07/31 03:26:05;;;;;;;3.90;2.10;;;16.30;99.90;;;;;;5092705;27;20209;-67
2023/07/31 03:28:30;;;;;;;2.65;2.22;;;16.10;99.90;;;;;;5111973;27;20183;-66
2023/07/31 03:30:56;;;;;;;2.87;2.20;;;16.00;99.90;;;;;;5113281;27;20269;-65
2023/07/31 03:33:22;;;;;;;2.27;2.07;;;16.00;99.90;;;;;;5112348;27;20236;-67
2023/07/31 03:35:47;;;;;;;3.77;2.20;;;15.90;99.90;;;;;;5094586;27;20713;-66
2023/07/31 03:38:13;;;;;;;5.93;2.53;;;15.80;99.90;;;;;;5112018;27;20217;-66
2023/07/31 03:40:39;;;;;;;4.65;2.58;;;15.80;99.90;;;;;;5114305;27;20194;-66
2023/07/31 03:43:05;;;;;;;2.40;2.20;;;15.80;99.90;;;;;;5113807;27;20205;-66
2023/07/31 03:45:30;;;;;;;2.80;2.00;;;15.70;99.90;;;;;;5112906;27;20294;-67
2023/07/31 03:47:56;;;;;;;5.07;2.23;;;15.80;99.90;;;;;;5107773;27;20452;-66
2023/07/31 03:50:22;;;;;;;4.13;2.30;;;15.60;99.90;;;;;;5112810;27;20283;-66
2023/07/31 03:52:47;;;;;;;2.33;2.13;;;15.60;99.90;;;;;;5107117;27;20179;-66
2023/07/31 03:55:13;;;;;;;5.17;2.20;;;15.60;99.90;;;;;;5113329;27;20294;-66
2023/07/31 03:57:38;;;;;;;2.80;2.50;;;15.80;99.90;;;;;;5111012;27;20192;-66
2023/07/31 04:00:04;;;;;;;2.50;2.30;;;15.70;99.90;;;;;;5112919;27;20227;-66
2023/07/31 04:02:30;;;;;;;2.53;2.08;;;15.70;99.90;;;;;;5113188;27;20667;-66
2023/07/31 04:04:55;;;;;;;2.40;2.20;;;15.80;99.90;;;;;;5105855;27;20233;-66
2023/07/31 04:07:21;;;;;;;2.63;1.87;;;15.80;99.90;;;;;;5113346;27;20223;-67
2023/07/31 04:09:46;;;;;;;3.40;3.10;;;15.70;99.90;;;;;;5109605;27;20215;-66
2023/07/31 04:12:12;;;;;;;6.33;2.60;;;15.70;99.90;;;;;;5114828;27;20209;-67
2023/07/31 04:14:37;;;;;;;4.57;2.40;;;15.60;99.90;;;;;;5111648;27;20199;-66
2023/07/31 04:17:03;;;;;;;6.30;2.37;;;15.80;99.90;;;;;;5094560;27;20241;-66
2023/07/31 04:19:29;;;;;;;3.47;2.13;;;15.90;99.90;;;;;;5096161;27;20639;-66
2023/07/31 04:21:54;;;;;;;3.23;2.50;;;15.80;99.90;;;;;;5115737;27;20191;-67
2023/07/31 04:24:24;;;;;;;2.33;2.10;;;16.20;99.90;;;;;;5112421;27;20223;-67
2023/07/31 04:26:51;;;;;;;2.55;1.98;;;15.80;99.90;;;;;;5106797;27;20183;-66
2023/07/31 04:29:16;;;;;;;7.55;2.80;;;15.80;99.90;;;;;;5108049;27;20270;-66
2023/07/31 04:31:42;;;;;;;2.70;2.00;;;16.00;99.90;;;;;;5089038;28;20642;-66
2023/07/31 04:34:07;;;;;;;2.43;2.17;;;17.40;99.90;;;;;;5112832;27;20195;-66
2023/07/31 04:36:34;;;;;;;3.97;2.10;;;16.10;99.90;;;;;;5113497;27;20215;-66
2023/07/31 04:38:59;;;;;;;3.17;1.98;;;15.90;99.90;;;;;;5112009;27;20934;-67
2023/07/31 04:41:25;;;;;;;2.83;2.13;;;16.30;99.90;;;;;;5114418;27;20191;-66
2023/07/31 04:43:50;;;;;;;5.00;3.00;;;16.20;99.90;;;;;;5104116;27;20937;-66
2023/07/31 04:46:16;;;;;;;4.43;2.50;;;16.20;99.90;;;;;;5111440;27;20276;-67
2023/07/31 04:48:42;;;;;;;2.50;2.30;;;16.20;99.90;;;;;;5087348;27;20183;-67
2023/07/31 04:51:09;;;;;;;3.33;2.30;;;16.30;99.90;;;;;;5112857;28;20786;-66
2023/07/31 04:53:35;;;;;;;2.28;2.08;;;16.60;99.90;;;;;;5107766;28;20180;-67
2023/07/31 04:56:00;;;;;;;2.80;2.08;;;16.80;99.90;;;;;;5110225;27;20736;-67
2023/07/31 04:58:26;;;;;;;3.00;2.37;;;16.70;99.90;;;;;;5111379;28;20180;-67
2023/07/31 05:00:52;;;;;;;2.40;2.20;;;17.10;99.90;;;;;;5107385;28;20642;-68
2023/07/31 05:03:17;;;;;;;3.00;2.10;;;17.10;99.90;;;;;;5106572;28;20279;-68
2023/07/31 05:05:43;;;;;;;2.93;2.60;;;17.30;99.90;;;;;;5092399;28;20697;-68
2023/07/31 05:08:08;;;;;;;2.90;2.47;;;17.30;99.90;;;;;;5116467;28;20663;-68
2023/07/31 05:10:34;;;;;;;2.17;2.00;;;17.40;99.90;;;;;;5107600;28;20299;-66
2023/07/31 05:13:00;;;;;;;3.00;2.10;;;17.20;99.90;;;;;;5109994;27;20202;-68
2023/07/31 05:15:25;;;;;;;2.30;2.10;;;17.50;99.90;;;;;;5115192;27;20623;-66
2023/07/31 05:17:51;;;;;;;3.03;1.90;;;17.40;99.90;;;;;;5114303;27;20191;-67
2023/07/31 05:20:16;;;;;;;3.47;2.27;;;17.50;99.90;;;;;;5118395;27;20239;-67
2023/07/31 05:22:42;;;;;;;3.10;2.40;;;17.60;99.90;;;;;;5112413;27;20631;-66
2023/07/31 05:25:08;;;;;;;2.00;1.90;;;18.00;99.90;;;;;;5118152;27;20246;-68
2023/07/31 05:27:33;;;;;;;4.80;2.10;;;17.70;99.90;;;;;;5113333;27;20187;-68
2023/07/31 05:29:59;;;;;;;2.90;1.70;;;17.80;99.90;;;;;;5110769;27;20860;-68
2023/07/31 05:32:24;;;;;;;3.60;2.20;;;18.00;99.90;;;;;;5113242;27;20226;-68
2023/07/31 05:34:53;;;;;;;2.30;2.10;;;18.00;99.90;;;;;;5110083;27;20207;-68
2023/07/31 05:37:19;;;;;;;3.50;1.90;;;18.00;99.90;;;;;;5115894;27;20179;-68
2023/07/31 05:39:45;;;;;;;2.63;2.03;;;18.10;99.90;;;;;;5118594;27;20232;-68
2023/07/31 05:42:11;;;;;;;11.27;2.57;;;18.20;99.90;;;;;;5112933;27;20187;-68
2023/07/31 05:44:37;;;;;;;4.93;2.43;;;18.30;99.90;;;;;;5112407;27;20480;-68
2023/07/31 05:47:02;;;;;;;2.60;1.97;;;18.40;99.90;;;;;;5114006;27;20183;-68
2023/07/31 05:49:28;;;;;;;3.13;2.60;;;18.50;99.90;;;;;;5109612;27;20258;-68
2023/07/31 05:51:53;;;;;;;3.20;2.20;;;18.70;99.90;;;;;;5116060;27;20202;-66
2023/07/31 05:54:19;;;;;;;2.20;2.00;;;18.90;99.90;;;;;;5108234;27;20196;-67
2023/07/31 05:56:45;;;;;;;3.50;2.10;;;18.70;99.80;;;;;;5120340;27;20191;-67
2023/07/31 05:59:13;;;;;;;3.43;1.90;;;18.80;99.60;;;;;;5102524;27;20674;-68
2023/07/31 06:01:39;;;;;;;4.32;2.00;;;19.50;99.60;;;;;;5110531;27;20179;-68
2023/07/31 06:04:04;;;;;;;3.53;2.17;;;19.50;99.10;;;;;;5108990;27;20209;-68
2023/07/31 06:06:30;;;;;;;3.43;2.23;;;19.80;98.60;;;;;;5111987;27;20448;-68
2023/07/31 06:08:56;;;;;;;3.43;1.70;;;20.00;98.20;;;;;;5113360;27;20548;-68
2023/07/31 06:11:22;;;;;;;4.27;2.23;;;20.20;97.80;;;;;;5110907;27;20207;-66
2023/07/31 06:13:48;;;;;;;5.30;2.10;;;20.30;97.50;;;;;;5090283;27;20300;-67
2023/07/31 06:16:15;;;;;;;3.13;2.70;;;20.50;97.20;;;;;;5110953;27;20465;-68
2023/07/31 06:18:41;;;;;;;2.28;1.83;;;20.70;96.70;;;;;;5113224;27;20686;-67
2023/07/31 06:21:06;;;;;;;2.77;2.23;;;20.90;96.20;;;;;;5108474;27;20214;-67
2023/07/31 06:23:32;;;;;;;2.43;2.20;;;21.00;95.30;;;;;;5118606;27;20187;-67
2023/07/31 06:25:57;;;;;;;2.30;2.10;;;21.20;95.00;;;;;;5109097;27;20225;-67
2023/07/31 06:28:31;;;;;;;4.10;1.73;;;21.30;94.50;;;;;;5104836;27;20190;-67
2023/07/31 06:30:57;;;;;;;2.05;1.50;;;21.30;94.40;;;;;;5109408;27;20698;-67
2023/07/31 06:33:23;;;;;;;3.75;2.35;;;21.90;94.30;;;;;;5096902;28;20191;-67
2023/07/31 06:35:48;;;;;;;2.83;1.90;;;21.60;93.40;;;;;;5108723;27;20670;-67
2023/07/31 06:38:14;;;;;;;4.60;2.37;;;21.80;93.10;;;;;;5110441;27;20183;-67
2023/07/31 06:40:46;;;;;;;2.60;1.80;;;21.70;93.10;;;;;;5091453;28;20416;-66
2023/07/31 06:43:20;;;;;;;3.00;2.00;;;21.80;93.00;;;;;;5103013;27;20211;-66
2023/07/31 06:45:51;;;;;;;4.40;2.45;;;21.80;93.00;;;;;;5091881;27;20203;-67
2023/07/31 06:48:17;;;;;;;1.58;1.48;;;21.70;92.90;;;;;;5109005;27;20198;-67
2023/07/31 06:50:42;;;;;;;2.23;2.03;;;22.00;92.50;;;;;;5117055;27;20195;-68
2023/07/31 06:53:08;;;;;;;2.53;2.33;;;22.00;92.60;;;;;;5109482;27;20991;-68
2023/07/31 06:55:33;;;;;;;4.50;2.17;;;21.70;92.70;;;;;;5112678;27;20576;-68
2023/07/31 06:57:59;;;;;;;2.07;1.97;;;21.90;92.90;;;;;;5092303;27;20248;-67
2023/07/31 07:00:25;;;;;;;5.00;2.17;;;22.10;92.20;;;;;;5115997;27;20274;-67
2023/07/31 07:02:50;;;;;;;4.30;2.10;;;22.30;91.60;;;;;;5109566;27;20180;-67
2023/07/31 07:05:17;;;;;;;3.43;1.80;;;22.50;91.50;;;;;;5096501;27;20231;-66
2023/07/31 07:07:43;;;;;;;4.20;2.30;;;22.70;91.10;;;;;;5110627;27;20262;-67
2023/07/31 07:10:09;;;;;;;2.47;2.10;;;22.80;90.50;;;;;;5114132;27;20516;-68
2023/07/31 07:12:35;;;;;;;3.20;1.90;;;23.00;90.10;;;;;;5115500;27;20452;-66
2023/07/31 07:15:01;;;;;;;2.10;1.73;;;23.10;90.00;;;;;;5112443;27;20453;-68
2023/07/31 07:17:28;;;;;;;3.03;2.50;;;23.50;90.00;;;;;;5115568;27;20430;-68
2023/07/31 07:19:55;;;;;;;4.67;3.17;;;24.30;88.20;;;;;;5107930;27;20192;-68
2023/07/31 07:22:20;;;;;;;2.47;2.00;;;24.90;85.40;;;;;;5109972;27;20460;-67
2023/07/31 07:24:46;;;;;;;3.30;2.20;;;26.00;81.10;;;;;;5109689;27;20456;-67
2023/07/31 07:27:11;;;;;;;3.83;2.00;;;27.00;77.60;;;;;;5114674;27;20201;-67
2023/07/31 07:29:38;;;;;;;1.93;1.73;;;28.00;72.90;;;;;;5093777;27;20319;-67
2023/07/31 07:32:04;;;;;;;3.70;2.10;;;28.40;69.60;;;;;;5111438;27;20565;-67
2023/07/31 07:34:29;;;;;;;2.47;2.10;;;28.90;67.80;;;;;;5108633;27;20497;-67
2023/07/31 07:36:55;;;;;;;3.10;2.70;;;28.30;65.90;;;;;;5111186;27;21166;-67
2023/07/31 07:39:21;;;;;;;2.53;2.10;;;28.00;67.80;;;;;;5112003;27;20543;-66
2023/07/31 07:41:46;;;;;;;3.00;2.20;;;26.70;71.10;;;;;;5112303;27;20229;-66
2023/07/31 07:44:13;;;;;;;2.73;1.93;;;25.80;72.80;;;;;;5086118;28;20316;-67
2023/07/31 07:46:38;;;;;;;5.07;2.17;;;25.70;75.60;;;;;;5113776;27;20184;-66
2023/07/31 07:49:04;;;;;;;2.03;1.83;;;26.40;74.20;;;;;;5093600;27;20448;-67
2023/07/31 07:51:31;;;;;;;8.23;2.30;;;26.70;72.00;;;;;;5109945;27;20210;-67
2023/07/31 07:54:00;;;;;;;5.53;2.03;;;26.50;71.80;;;;;;5107578;27;20186;-67
2023/07/31 07:56:26;;;;;;;2.30;2.10;;;26.10;72.90;;;;;;5110528;27;20860;-68
2023/07/31 07:58:53;;;;;;;2.13;1.93;;;26.90;72.10;;;;;;5107940;27;20493;-68
2023/07/31 08:01:18;;;;;;;3.60;2.20;;;27.40;69.60;;;;;;5107177;27;20500;-67
2023/07/31 08:03:44;;;;;;;4.47;1.80;;;28.20;66.30;;;;;;5113406;27;20435;-67
2023/07/31 08:06:10;;;;;;;2.60;2.03;;;29.40;63.80;;;;;;5107609;27;21395;-66
2023/07/31 08:08:36;;;;;;;3.10;1.80;;;30.20;60.50;;;;;;5113443;27;20201;-65
2023/07/31 08:11:02;;;;;;;3.50;2.43;;;30.40;59.20;;;;;;5108914;27;20276;-66
2023/07/31 08:13:28;;;;;;;6.20;4.10;;;31.10;57.90;;;;;;5108221;27;20802;-67
2023/07/31 08:15:53;;;;;;;4.13;3.00;;;31.90;56.10;;;;;;5090669;27;20199;-67
2023/07/31 08:18:19;;;;;;;3.40;2.00;;;33.00;54.50;;;;;;5112850;27;20259;-68
2023/07/31 08:20:45;;;;;;;3.67;2.13;;;33.50;52.10;;;;;;5112314;27;20209;-66
2023/07/31 08:23:10;;;;;;;2.77;2.20;;;33.20;50.80;;;;;;5110283;27;20214;-68
2023/07/31 08:25:37;;;;;;;3.67;2.37;;;32.90;50.70;;;;;;5111622;27;20293;-67
2023/07/31 08:28:03;;;;;;;3.00;2.00;;;33.30;51.30;;;;;;5107766;27;20208;-67
2023/07/31 08:30:30;;;;;;;4.60;2.10;;;33.10;50.70;;;;;;5111013;27;20448;-65
2023/07/31 08:32:55;;;;;;;3.27;2.50;;;32.60;50.60;;;;;;5107671;27;20435;-66
2023/07/31 08:35:21;;;;;;;4.40;2.47;;;32.90;49.80;;;;;;5107739;27;20456;-66
2023/07/31 08:37:46;;;;;;;2.23;1.90;;;33.00;49.80;;;;;;5106987;27;20641;-66
2023/07/31 08:40:13;;;;;;;2.87;2.27;;;33.20;49.10;;;;;;5109621;27;20237;-66
2023/07/31 08:42:50;;;;;;;4.00;2.97;;;33.20;49.00;;;;;;5096605;28;20179;-67
2023/07/31 08:45:17;;;;;;;4.80;2.67;;;32.10;49.10;;;;;;5109698;27;20459;-67
2023/07/31 08:47:45;;;;;;;3.80;2.30;;;31.60;50.70;;;;;;5109931;27;20944;-68
2023/07/31 08:50:13;;;;;;;2.67;1.77;;;32.40;50.50;;;;;;5087971;28;20463;-67
2023/07/31 08:52:38;;;;;;;3.23;2.80;;;31.80;50.40;;;;;;5109684;27;20543;-68
2023/07/31 08:55:05;;;;;;;3.27;1.87;;;31.00;52.10;;;;;;5115280;27;20556;-66
2023/07/31 08:57:34;;;;;;;2.97;2.40;;;30.40;52.80;;;;;;5108028;28;20226;-67
2023/07/31 09:00:00;;;;;;;2.73;2.23;;;30.00;53.70;;;;;;5110884;28;20452;-66
2023/07/31 09:02:31;;;;;;;3.70;2.23;;;30.40;53.50;;;;;;5090464;28;20790;-66
2023/07/31 09:04:57;;;;;;;3.53;2.33;;;30.80;52.90;;;;;;5108704;28;20464;-66
2023/07/31 09:07:24;;;;;;;3.20;2.20;;;30.20;52.90;;;;;;5108576;28;20514;-67
2023/07/31 09:09:49;;;;;;;2.90;2.10;;;30.20;53.50;;;;;;5114064;28;20436;-67
2023/07/31 09:12:16;;;;;;;2.60;2.17;;;30.30;53.40;;;;;;5091770;28;20474;-66
2023/07/31 09:14:45;;;;;;;3.20;2.47;;;29.80;53.30;;;;;;5106362;28;20209;-67
2023/07/31 09:17:10;;;;;;;2.27;2.07;;;29.40;54.50;;;;;;5110752;28;20534;-67
2023/07/31 09:19:39;;;;;;;6.27;4.23;;;29.40;55.30;;;;;;5113473;28;20524;-66
2023/07/31 09:22:06;;;;;;;2.57;2.37;;;29.60;54.80;;;;;;5105499;28;20186;-67
2023/07/31 09:24:33;;;;;;;2.47;2.20;;;29.40;55.60;;;;;;5113934;28;20836;-67
2023/07/31 09:27:01;;;;;;;4.07;2.70;;;29.20;55.60;;;;;;5106389;28;20480;-67
2023/07/31 09:29:28;;;;;;;3.77;2.30;;;28.60;56.30;;;;;;5089838;28;20438;-67
2023/07/31 09:31:54;;;;;;;6.83;3.77;;;27.60;57.60;;;;;;5108710;28;20539;-68
2023/07/31 09:34:27;;;;;;;2.63;2.20;;;27.20;59.00;;;;;;5108703;28;20452;-67
2023/07/31 09:36:53;;;;;;;4.80;2.37;;;26.90;60.90;;;;;;5111170;28;20480;-68
2023/07/31 09:39:20;;;;;;;2.90;2.43;;;26.50;61.40;;;;;;5088174;28;20511;-68
2023/07/31 09:41:53;;;;;;;4.27;2.47;;;26.20;63.60;;;;;;5109713;28;20565;-67
2023/07/31 09:44:19;;;;;;;2.70;2.17;;;26.00;64.70;;;;;;5106930;28;20506;-68
2023/07/31 09:46:45;;;;;;;3.83;2.63;;;25.80;65.40;;;;;;5092591;28;20469;-67
2023/07/31 09:49:12;;;;;;;2.77;2.30;;;25.20;67.60;;;;;;5112515;28;20208;-68
2023/07/31 09:51:42;;;;;;;3.03;2.23;;;25.20;67.60;;;;;;5113075;28;20471;-67
2023/07/31 09:54:16;;;;;;;5.50;2.47;;;25.80;67.00;;;;;;5094369;28;20443;-67
2023/07/31 09:56:48;;;;;;;3.30;2.60;;;27.70;62.00;;;;;;5108161;28;20453;-67
2023/07/31 09:59:18;;;;;;;4.03;2.30;;;29.10;58.00;;;;;;5114643;27;20582;-67
2023/07/31 10:01:46;;;;;;;3.27;2.20;;;29.40;56.80;;;;;;5118611;27;20473;-68
2023/07/31 10:04:13;;;;;;;2.20;2.00;;;29.40;56.20;;;;;;5111567;27;20538;-67
2023/07/31 10:06:40;;;;;;;2.90;2.60;;;28.90;57.00;;;;;;5116630;27;20438;-67
2023/07/31 10:09:08;;;;;;;4.30;2.50;;;28.60;57.70;;;;;;5111254;27;20436;-68
2023/07/31 10:11:50;;;;;;;3.33;2.57;;;28.50;57.20;;;;;;5097056;27;20509;-67
2023/07/31 10:14:19;;;;;;;6.87;2.93;;;28.40;57.70;;;;;;5107843;27;20455;-67
2023/07/31 10:16:45;;;;;;;2.80;2.60;;;27.80;57.40;;;;;;5114613;27;20430;-67
2023/07/31 10:19:11;;;;;;;2.43;1.90;;;27.80;58.30;;;;;;5111851;27;20527;-67
2023/07/31 10:21:37;;;;;;;3.50;2.33;;;27.30;59.80;;;;;;5112492;27;20194;-68
2023/07/31 10:24:04;;;;;;;2.97;2.30;;;26.80;60.80;;;;;;5112849;27;20211;-68
2023/07/31 10:26:32;;;;;;;2.90;2.30;;;26.60;61.50;;;;;;5093724;27;20444;-68
2023/07/31 10:28:58;;;;;;;3.20;2.90;;;26.20;63.20;;;;;;5110464;27;20543;-67
2023/07/31 10:31:24;;;;;;;4.60;2.53;;;25.70;63.50;;;;;;5116450;27;20858;-68
2023/07/31 10:33:51;;;;;;;4.47;2.70;;;26.20;64.30;;;;;;5109505;27;20437;-67
2023/07/31 10:36:19;;;;;;;3.10;2.33;;;26.30;64.00;;;;;;5097160;27;20455;-66
2023/07/31 10:38:45;;;;;;;3.47;2.53;;;25.80;64.40;;;;;;5112028;27;20824;-68
2023/07/31 10:41:10;;;;;;;2.60;2.40;;;25.80;65.50;;;;;;5088833;27;20978;-68
2023/07/31 10:43:37;;;;;;;3.07;2.20;;;25.80;66.10;;;;;;5114097;27;20560;-67
2023/07/31 10:46:08;;;;;;;4.57;3.40;;;25.80;64.90;;;;;;5118623;27;20650;-68
2023/07/31 10:48:36;;;;;;;4.10;2.63;;;25.80;64.70;;;;;;5111164;27;21022;-67
2023/07/31 10:51:08;;;;;;;4.00;2.57;;;25.70;66.30;;;;;;5113743;27;20480;-67
2023/07/31 10:53:34;;;;;;;4.53;2.53;;;25.80;65.00;;;;;;5096809;27;20446;-68
2023/07/31 10:56:01;;;;;;;5.03;2.30;;;25.60;64.90;;;;;;5094511;27;20464;-68
2023/07/31 10:58:27;;;;;;;2.90;2.20;;;25.60;65.60;;;;;;5094042;27;20673;-68
2023/07/31 11:00:58;;;;;;;3.47;3.10;;;25.80;65.00;;;;;;5110165;27;20481;-68
2023/07/31 11:03:40;;;;;;;3.23;2.67;;;25.90;65.60;;;;;;5093099;27;20856;-68
2023/07/31 11:06:06;;;;;;;5.13;2.70;;;25.60;65.90;;;;;;5113637;27;20470;-67
2023/07/31 11:08:33;;;;;;;2.70;2.50;;;25.30;65.20;;;;;;5090412;27;20455;-68
2023/07/31 11:11:01;;;;;;;2.20;2.00;;;25.60;65.50;;;;;;5113514;27;20204;-68
2023/07/31 11:13:49;;;;;;;3.30;2.03;;;25.50;67.00;;;;;;5108394;27;20977;-68
2023/07/31 11:16:15;;;;;;;4.33;2.87;;;25.40;66.80;;;;;;5115176;27;20463;-68
2023/07/31 11:18:42;;;;;;;5.33;2.80;;;25.30;67.20;;;;;;5111206;27;21017;-67
2023/07/31 11:21:12;;;;;;;3.13;2.60;;;25.10;68.60;;;;;;5112499;27;20878;-68
2023/07/31 11:23:38;;;;;;;3.03;2.73;;;25.10;67.90;;;;;;5110778;27;20943;-67
2023/07/31 11:26:06;;;;;;;3.83;2.77;;;25.00;68.50;;;;;;5113567;27;20566;-66
2023/07/31 11:28:33;;;;;;;2.57;2.17;;;24.90;68.50;;;;;;5095186;27;20788;-68
2023/07/31 11:30:59;;;;;;;4.33;3.37;;;25.00;68.80;;;;;;5114820;27;20568;-68
2023/07/31 11:33:26;;;;;;;3.03;2.30;;;25.20;69.20;;;;;;5116969;27;20499;-68
2023/07/31 11:35:51;;;;;;;3.10;2.40;;;24.90;70.10;;;;;;5110050;27;20472;-68
2023/07/31 11:38:30;;;;;;;3.93;2.60;;;24.80;70.30;;;;;;5114025;27;20437;-68
2023/07/31 11:40:58;;;;;;;2.60;2.30;;;24.60;70.70;;;;;;5108139;27;20663;-68
2023/07/31 11:43:24;;;;;;;4.40;2.50;;;24.70;71.00;;;;;;5102088;27;20453;-68
2023/07/31 11:45:55;;;;;;;3.80;3.00;;;25.40;69.90;;;;;;5114230;27;20462;-68
2023/07/31 11:48:22;;;;;;;3.93;2.50;;;25.80;68.50;;;;;;5112027;27;20496;-68
2023/07/31 11:50:49;;;;;;;3.57;2.93;;;26.10;68.40;;;;;;5116237;27;20471;-68
2023/07/31 11:53:17;;;;;;;4.07;2.50;;;26.30;66.80;;;;;;5092474;27;20441;-68
2023/07/31 11:55:43;;;;;;;4.63;3.27;;;26.40;66.50;;;;;;5112607;27;20467;-68
2023/07/31 11:58:09;;;;;;;3.00;2.40;;;26.10;67.20;;;;;;5090296;27;20459;-68
2023/07/31 12:00:35;;;;;;;3.00;2.10;;;25.90;67.20;;;;;;5111973;27;20444;-68
2023/07/31 12:03:01;;;;;;;3.33;2.50;;;25.90;68.00;;;;;;5115110;27;20449;-68
2023/07/31 12:05:27;;;;;;;3.20;2.30;;;25.80;68.50;;;;;;5114149;27;20202;-67
2023/07/31 12:07:54;;;;;;;4.10;2.77;;;25.80;68.70;;;;;;5108442;27;20190;-67
2023/07/31 12:10:31;;;;;;;5.03;2.87;;;25.90;68.80;;;;;;5115666;27;20933;-68
2023/07/31 12:13:13;;;;;;;4.20;2.70;;;25.90;69.00;;;;;;5101898;27;20519;-67
2023/07/31 12:15:43;;;;;;;2.50;2.10;;;25.90;69.10;;;;;;5109970;27;20459;-68
2023/07/31 12:18:09;;;;;;;3.57;2.43;;;25.90;68.00;;;;;;5118002;27;20439;-67
2023/07/31 12:20:35;;;;;;;3.80;2.47;;;25.90;69.40;;;;;;5091718;28;20799;-68
2023/07/31 12:23:01;;;;;;;4.33;2.70;;;25.80;69.50;;;;;;5111184;27;20541;-68
2023/07/31 12:25:31;;;;;;;3.23;2.70;;;25.60;69.00;;;;;;5109474;27;20457;-68
2023/07/31 12:27:58;;;;;;;4.00;2.73;;;25.60;69.30;;;;;;5111098;27;20449;-67
2023/07/31 12:30:28;;;;;;;3.90;2.40;;;25.60;69.80;;;;;;5113214;27;20451;-67
2023/07/31 12:32:53;;;;;;;4.27;2.80;;;25.40;69.80;;;;;;5113309;27;20438;-68
2023/07/31 12:35:19;;;;;;;2.70;2.27;;;25.40;70.30;;;;;;5110916;27;20627;-67
2023/07/31 12:37:44;;;;;;;3.70;2.50;;;25.30;70.40;;;;;;5115944;27;20611;-68
2023/07/31 12:40:10;;;;;;;2.50;2.30;;;25.30;72.50;;;;;;5108683;27;20667;-67
2023/07/31 12:42:36;;;;;;;3.90;3.17;;;25.00;70.40;;;;;;5106081;27;20229;-68
2023/07/31 12:45:02;;;;;;;3.40;2.90;;;24.70;70.70;;;;;;5113046;27;20466;-68
2023/07/31 12:47:27;;;;;;;3.87;2.40;;;24.50;70.90;;;;;;5115353;27;20255;-65